Terminal Aerodrome Forecast
Issued by NWS Grand Junction, CO

Home | Current Version | Previous Version | Text Only | Print | Product List | Glossary On
Versions: 1 2 3 4 5 6 7 8 9 10 11 12 13
000
FTUS45 KGJT 230538
TAFGJT
TAF
KGJT 230538Z 2306/2406 12010KT P6SM VCSH SCT120
     FM230800 11012KT P6SM SCT120
     FM231700 15005KT P6SM SCT130
     FM232000 28007KT P6SM FEW130
     FM240200 10006KT P6SM SCT150=

USA.gov is the U.S. government's official web portal to all federal, state and local government web resources and services.